sensor_id;sensor_type;location;lat;lon;timestamp;pressure;altitude;pressure_sealevel;temperature;humidity
5053;BME280;2545;50.892;5.740;2023-07-20T00:01:03;56051.31;;;-142.21;100.00
5053;BME280;2545;50.892;5.740;2023-07-20T00:03:28;56059.16;;;-142.21;100.00
5053;BME280;2545;50.892;5.740;2023-07-20T00:05:54;56029.72;;;-142.21;100.00
5053;BME280;2545;50.892;5.740;2023-07-20T00:08:19;56074.84;;;-142.21;100.00
5053;BME280;2545;50.892;5.740;2023-07-20T00:10:44;56110.13;;;-142.21;100.00
5053;BME280;2545;50.892;5.740;2023-07-20T00:13:11;56070.91;;;-142.21;100.00
5053;BME280;2545;50.892;5.740;2023-07-20T00:15:36;56057.19;;;-142.21;100.00
5053;BME280;2545;50.892;5.740;2023-07-20T00:18:03;56068.94;;;-142.21;100.00
5053;BME280;2545;50.892;5.740;2023-07-20T00:20:28;56068.94;;;-142.21;100.00
5053;BME280;2545;50.892;5.740;2023-07-20T00:22:54;56082.69;;;-142.21;100.00
5053;BME280;2545;50.892;5.740;2023-07-20T00:25:20;56076.78;;;-142.21;100.00
5053;BME280;2545;50.892;5.740;2023-07-20T00:27:45;56037.56;;;-142.21;100.00
5053;BME280;2545;50.892;5.740;2023-07-20T00:30:11;56063.06;;;-142.21;100.00
5053;BME280;2545;50.892;5.740;2023-07-20T00:32:37;56010.13;;;-142.21;100.00
5053;BME280;2545;50.892;5.740;2023-07-20T00:35:02;56076.78;;;-142.21;100.00
5053;BME280;2545;50.892;5.740;2023-07-20T00:37:27;56080.72;;;-142.21;100.00
5053;BME280;2545;50.892;5.740;2023-07-20T00:39:54;56072.88;;;-142.21;100.00
5053;BME280;2545;50.892;5.740;2023-07-20T00:42:19;56041.50;;;-142.21;100.00
5053;BME280;2545;50.892;5.740;2023-07-20T00:44:45;56076.78;;;-142.21;100.00
5053;BME280;2545;50.892;5.740;2023-07-20T00:47:10;56045.41;;;-142.21;100.00
5053;BME280;2545;50.892;5.740;2023-07-20T00:49:37;56086.59;;;-142.21;100.00
5053;BME280;2545;50.892;5.740;2023-07-20T00:52:03;56014.06;;;-142.21;100.00
5053;BME280;2545;50.892;5.740;2023-07-20T00:54:31;56029.72;;;-142.21;100.00
5053;BME280;2545;50.892;5.740;2023-07-20T00:56:56;56055.22;;;-142.21;100.00
5053;BME280;2545;50.892;5.740;2023-07-20T00:59:23;56092.47;;;-142.21;100.00
5053;BME280;2545;50.892;5.740;2023-07-20T01:01:48;56039.53;;;-142.21;100.00
5053;BME280;2545;50.892;5.740;2023-07-20T01:04:14;56029.72;;;-142.21;100.00
5053;BME280;2545;50.892;5.740;2023-07-20T01:09:18;56100.31;;;-142.21;100.00
5053;BME280;2545;50.892;5.740;2023-07-20T01:12:02;56119.94;;;-142.21;100.00
5053;BME280;2545;50.892;5.740;2023-07-20T01:14:31;56082.69;;;-142.21;100.00
5053;BME280;2545;50.892;5.740;2023-07-20T01:16:57;56019.94;;;-142.21;100.00
5053;BME280;2545;50.892;5.740;2023-07-20T01:19:22;56039.53;;;-142.21;100.00
5053;BME280;2545;50.892;5.740;2023-07-20T01:21:55;56080.72;;;-142.21;100.00
5053;BME280;2545;50.892;5.740;2023-07-20T01:24:32;56033.66;;;-142.21;100.00
5053;BME280;2545;50.892;5.740;2023-07-20T01:32:26;56070.91;;;-142.21;100.00
5053;BME280;2545;50.892;5.740;2023-07-20T01:34:54;56068.94;;;-142.21;100.00
5053;BME280;2545;50.892;5.740;2023-07-20T01:37:20;56010.13;;;-142.21;100.00
5053;BME280;2545;50.892;5.740;2023-07-20T01:39:50;56059.16;;;-142.21;100.00
5053;BME280;2545;50.892;5.740;2023-07-20T01:42:16;56074.84;;;-142.21;100.00
5053;BME280;2545;50.892;5.740;2023-07-20T01:44:42;56070.91;;;-142.21;100.00
5053;BME280;2545;50.892;5.740;2023-07-20T01:47:07;56041.50;;;-142.21;100.00
5053;BME280;2545;50.892;5.740;2023-07-20T01:49:33;56017.97;;;-142.21;100.00
5053;BME280;2545;50.892;5.740;2023-07-20T01:51:58;56070.91;;;-142.21;100.00
5053;BME280;2545;50.892;5.740;2023-07-20T01:54:24;56074.84;;;-142.21;100.00
5053;BME280;2545;50.892;5.740;2023-07-20T01:56:49;56049.34;;;-142.21;100.00
5053;BME280;2545;50.892;5.740;2023-07-20T01:59:14;56041.50;;;-142.21;100.00
5053;BME280;2545;50.892;5.740;2023-07-20T02:01:40;56027.78;;;-142.21;100.00
5053;BME280;2545;50.892;5.740;2023-07-20T02:04:05;56059.16;;;-142.21;100.00
5053;BME280;2545;50.892;5.740;2023-07-20T02:06:31;56014.06;;;-142.21;100.00
5053;BME280;2545;50.892;5.740;2023-07-20T02:08:56;56080.72;;;-142.21;100.00
5053;BME280;2545;50.892;5.740;2023-07-20T02:11:22;56025.81;;;-142.21;100.00
5053;BME280;2545;50.892;5.740;2023-07-20T02:13:47;56041.50;;;-142.21;100.00
5053;BME280;2545;50.892;5.740;2023-07-20T02:16:12;56086.59;;;-142.21;100.00
5053;BME280;2545;50.892;5.740;2023-07-20T02:18:38;56041.50;;;-142.21;100.00
5053;BME280;2545;50.892;5.740;2023-07-20T02:21:03;56029.72;;;-142.21;100.00
5053;BME280;2545;50.892;5.740;2023-07-20T02:23:28;56041.50;;;-142.21;100.00
5053;BME280;2545;50.892;5.740;2023-07-20T02:25:53;56031.69;;;-142.21;100.00
5053;BME280;2545;50.892;5.740;2023-07-20T02:28:19;56016.00;;;-142.21;100.00
5053;BME280;2545;50.892;5.740;2023-07-20T02:30:44;56025.81;;;-142.21;100.00
5053;BME280;2545;50.892;5.740;2023-07-20T02:33:09;56029.72;;;-142.21;100.00
5053;BME280;2545;50.892;5.740;2023-07-20T02:35:35;56045.41;;;-142.21;100.00
5053;BME280;2545;50.892;5.740;2023-07-20T02:38:00;56057.19;;;-142.21;100.00
5053;BME280;2545;50.892;5.740;2023-07-20T02:40:25;56035.63;;;-142.21;100.00
5053;BME280;2545;50.892;5.740;2023-07-20T02:42:51;56051.31;;;-142.21;100.00
5053;BME280;2545;50.892;5.740;2023-07-20T02:45:16;56053.25;;;-142.21;100.00
5053;BME280;2545;50.892;5.740;2023-07-20T02:47:42;56061.09;;;-142.21;100.00
5053;BME280;2545;50.892;5.740;2023-07-20T02:50:08;56068.94;;;-142.21;100.00
5053;BME280;2545;50.892;5.740;2023-07-20T02:52:33;56092.47;;;-142.21;100.00
5053;BME280;2545;50.892;5.740;2023-07-20T02:54:58;56057.19;;;-142.21;100.00
5053;BME280;2545;50.892;5.740;2023-07-20T02:57:24;56051.31;;;-142.21;100.00
5053;BME280;2545;50.892;5.740;2023-07-20T02:59:50;56078.75;;;-142.21;100.00
5053;BME280;2545;50.892;5.740;2023-07-20T03:02:15;56072.88;;;-142.21;100.00
5053;BME280;2545;50.892;5.740;2023-07-20T03:04:40;56059.16;;;-142.21;100.00
5053;BME280;2545;50.892;5.740;2023-07-20T03:07:06;56055.22;;;-142.21;100.00
5053;BME280;2545;50.892;5.740;2023-07-20T03:09:32;56057.19;;;-142.21;100.00
5053;BME280;2545;50.892;5.740;2023-07-20T03:11:58;56017.97;;;-142.21;100.00
5053;BME280;2545;50.892;5.740;2023-07-20T03:14:23;56043.47;;;-142.21;100.00
5053;BME280;2545;50.892;5.740;2023-07-20T03:16:49;56078.75;;;-142.21;100.00
5053;BME280;2545;50.892;5.740;2023-07-20T03:19:14;56080.72;;;-142.21;100.00
5053;BME280;2545;50.892;5.740;2023-07-20T03:21:39;56057.19;;;-142.21;100.00
5053;BME280;2545;50.892;5.740;2023-07-20T03:24:07;56074.84;;;-142.21;100.00
5053;BME280;2545;50.892;5.740;2023-07-20T03:26:35;56041.50;;;-142.21;100.00
5053;BME280;2545;50.892;5.740;2023-07-20T03:29:01;56037.56;;;-142.21;100.00
5053;BME280;2545;50.892;5.740;2023-07-20T03:31:26;56078.75;;;-142.21;100.00
5053;BME280;2545;50.892;5.740;2023-07-20T03:33:51;56067.00;;;-142.21;100.00
5053;BME280;2545;50.892;5.740;2023-07-20T03:36:17;56061.09;;;-142.21;100.00
5053;BME280;2545;50.892;5.740;2023-07-20T03:38:42;56068.94;;;-142.21;100.00
5053;BME280;2545;50.892;5.740;2023-07-20T03:41:08;56092.47;;;-142.21;100.00
5053;BME280;2545;50.892;5.740;2023-07-20T03:43:34;56092.47;;;-142.21;100.00
5053;BME280;2545;50.892;5.740;2023-07-20T03:45:59;56043.47;;;-142.21;100.00
5053;BME280;2545;50.892;5.740;2023-07-20T03:48:25;56070.91;;;-142.21;100.00
5053;BME280;2545;50.892;5.740;2023-07-20T03:50:52;56039.53;;;-142.21;100.00
5053;BME280;2545;50.892;5.740;2023-07-20T03:53:18;56039.53;;;-142.21;100.00
5053;BME280;2545;50.892;5.740;2023-07-20T03:55:45;56078.75;;;-142.21;100.00
5053;BME280;2545;50.892;5.740;2023-07-20T03:58:11;56067.00;;;-142.21;100.00
5053;BME280;2545;50.892;5.740;2023-07-20T04:00:37;56039.53;;;-142.21;100.00
5053;BME280;2545;50.892;5.740;2023-07-20T04:03:02;56055.22;;;-142.21;100.00
5053;BME280;2545;50.892;5.740;2023-07-20T04:05:28;56065.03;;;-142.21;100.00
5053;BME280;2545;50.892;5.740;2023-07-20T04:07:53;56035.63;;;-142.21;100.00
5053;BME280;2545;50.892;5.740;2023-07-20T04:10:19;56078.75;;;-142.21;100.00
5053;BME280;2545;50.892;5.740;2023-07-20T04:12:45;56061.09;;;-142.21;100.00
5053;BME280;2545;50.892;5.740;2023-07-20T04:15:13;56049.34;;;-142.21;100.00
5053;BME280;2545;50.892;5.740;2023-07-20T04:17:38;56080.72;;;-142.21;100.00
5053;BME280;2545;50.892;5.740;2023-07-20T04:20:04;56055.22;;;-142.21;100.00
5053;BME280;2545;50.892;5.740;2023-07-20T04:22:31;56094.44;;;-142.21;100.00
5053;BME280;2545;50.892;5.740;2023-07-20T04:24:56;56049.34;;;-142.21;100.00
5053;BME280;2545;50.892;5.740;2023-07-20T04:27:22;56053.25;;;-142.21;100.00
5053;BME280;2545;50.892;5.740;2023-07-20T04:29:47;56078.75;;;-142.21;100.00
5053;BME280;2545;50.892;5.740;2023-07-20T04:32:12;56033.66;;;-142.21;100.00
5053;BME280;2545;50.892;5.740;2023-07-20T04:34:38;56065.03;;;-142.21;100.00
5053;BME280;2545;50.892;5.740;2023-07-20T04:37:04;56045.41;;;-142.21;100.00
5053;BME280;2545;50.892;5.740;2023-07-20T04:39:30;56088.56;;;-142.21;100.00
5053;BME280;2545;50.892;5.740;2023-07-20T04:41:56;56043.47;;;-142.21;100.00
5053;BME280;2545;50.892;5.740;2023-07-20T04:44:21;56049.34;;;-142.21;100.00
5053;BME280;2545;50.892;5.740;2023-07-20T04:46:47;56035.63;;;-142.21;100.00
5053;BME280;2545;50.892;5.740;2023-07-20T04:49:12;56090.53;;;-142.21;100.00
5053;BME280;2545;50.892;5.740;2023-07-20T04:51:38;56068.94;;;-142.21;100.00
5053;BME280;2545;50.892;5.740;2023-07-20T04:54:04;56014.06;;;-142.21;100.00
5053;BME280;2545;50.892;5.740;2023-07-20T04:56:29;56045.41;;;-142.21;100.00
5053;BME280;2545;50.892;5.740;2023-07-20T04:58:55;56043.47;;;-142.21;100.00
5053;BME280;2545;50.892;5.740;2023-07-20T05:01:20;56033.66;;;-142.21;100.00
5053;BME280;2545;50.892;5.740;2023-07-20T05:03:45;56076.78;;;-142.21;100.00
5053;BME280;2545;50.892;5.740;2023-07-20T05:06:11;56068.94;;;-142.21;100.00
5053;BME280;2545;50.892;5.740;2023-07-20T05:08:37;56045.41;;;-142.21;100.00
5053;BME280;2545;50.892;5.740;2023-07-20T05:11:04;56108.16;;;-142.21;100.00
5053;BME280;2545;50.892;5.740;2023-07-20T05:13:29;56084.63;;;-142.21;100.00
5053;BME280;2545;50.892;5.740;2023-07-20T05:15:54;56057.19;;;-142.21;100.00
5053;BME280;2545;50.892;5.740;2023-07-20T05:18:20;56039.53;;;-142.21;100.00
5053;BME280;2545;50.892;5.740;2023-07-20T05:20:49;56063.06;;;-142.21;100.00
5053;BME280;2545;50.892;5.740;2023-07-20T05:23:17;56055.22;;;-142.21;100.00
5053;BME280;2545;50.892;5.740;2023-07-20T05:25:44;56017.97;;;-142.21;100.00
5053;BME280;2545;50.892;5.740;2023-07-20T05:28:09;56045.41;;;-142.21;100.00
5053;BME280;2545;50.892;5.740;2023-07-20T05:30:34;56035.63;;;-142.21;100.00
5053;BME280;2545;50.892;5.740;2023-07-20T05:33:00;56043.47;;;-142.21;100.00
5053;BME280;2545;50.892;5.740;2023-07-20T05:35:26;56019.94;;;-142.21;100.00
5053;BME280;2545;50.892;5.740;2023-07-20T05:37:51;56061.09;;;-142.21;100.00
5053;BME280;2545;50.892;5.740;2023-07-20T05:40:17;56065.03;;;-142.21;100.00
5053;BME280;2545;50.892;5.740;2023-07-20T05:42:46;56061.09;;;-142.21;100.00
5053;BME280;2545;50.892;5.740;2023-07-20T05:45:13;56063.06;;;-142.21;100.00
5053;BME280;2545;50.892;5.740;2023-07-20T05:47:39;56057.19;;;-142.21;100.00
5053;BME280;2545;50.892;5.740;2023-07-20T05:50:05;56049.34;;;-142.21;100.00
5053;BME280;2545;50.892;5.740;2023-07-20T05:52:30;56033.66;;;-142.21;100.00
5053;BME280;2545;50.892;5.740;2023-07-20T05:54:56;56047.38;;;-142.21;100.00
5053;BME280;2545;50.892;5.740;2023-07-20T05:57:21;56065.03;;;-142.21;100.00
5053;BME280;2545;50.892;5.740;2023-07-20T05:59:46;56019.94;;;-142.21;100.00
5053;BME280;2545;50.892;5.740;2023-07-20T06:02:12;56035.63;;;-142.21;100.00
5053;BME280;2545;50.892;5.740;2023-07-20T06:04:38;56037.56;;;-142.21;100.00
5053;BME280;2545;50.892;5.740;2023-07-20T06:07:04;56031.69;;;-142.21;98.68
5053;BME280;2545;50.892;5.740;2023-07-20T06:09:30;56037.56;;;-142.21;95.90
5053;BME280;2545;50.892;5.740;2023-07-20T06:11:55;56067.00;;;-142.21;94.62
5053;BME280;2545;50.892;5.740;2023-07-20T06:14:22;56061.09;;;-142.21;96.54
5053;BME280;2545;50.892;5.740;2023-07-20T06:16:47;56096.41;;;-142.21;100.00
5053;BME280;2545;50.892;5.740;2023-07-20T06:19:12;56055.22;;;-142.21;99.83
5053;BME280;2545;50.892;5.740;2023-07-20T06:21:38;56033.66;;;-142.21;98.71
5053;BME280;2545;50.892;5.740;2023-07-20T06:24:04;55988.56;;;-142.21;94.27
5053;BME280;2545;50.892;5.740;2023-07-20T06:26:29;56045.41;;;-142.21;93.55
5053;BME280;2545;50.892;5.740;2023-07-20T06:28:56;56025.81;;;-142.21;93.75
5053;BME280;2545;50.892;5.740;2023-07-20T06:31:21;56049.34;;;-142.21;93.34
5053;BME280;2545;50.892;5.740;2023-07-20T06:33:46;56037.56;;;-142.21;94.26
5053;BME280;2545;50.892;5.740;2023-07-20T06:36:12;56041.50;;;-142.21;93.88
5053;BME280;2545;50.892;5.740;2023-07-20T06:38:37;56023.84;;;-142.21;93.49
5053;BME280;2545;50.892;5.740;2023-07-20T06:41:03;56043.47;;;-142.21;93.39
5053;BME280;2545;50.892;5.740;2023-07-20T06:43:28;56029.72;;;-142.21;93.64
5053;BME280;2545;50.892;5.740;2023-07-20T06:45:54;56057.19;;;-142.21;90.41
5053;BME280;2545;50.892;5.740;2023-07-20T06:48:19;56029.72;;;-142.21;88.25
5053;BME280;2545;50.892;5.740;2023-07-20T06:50:45;56004.25;;;-142.21;86.41
5053;BME280;2545;50.892;5.740;2023-07-20T06:53:10;56049.34;;;-142.21;87.77
5053;BME280;2545;50.892;5.740;2023-07-20T06:55:35;56010.13;;;-142.21;87.11
5053;BME280;2545;50.892;5.740;2023-07-20T06:58:00;55988.56;;;-142.21;84.18
5053;BME280;2545;50.892;5.740;2023-07-20T07:00:26;56023.84;;;-142.21;87.85
5053;BME280;2545;50.892;5.740;2023-07-20T07:02:51;56023.84;;;-142.21;86.39
5053;BME280;2545;50.892;5.740;2023-07-20T07:05:17;56039.53;;;-142.21;84.37
5053;BME280;2545;50.892;5.740;2023-07-20T07:07:43;56047.38;;;-142.21;80.64
5053;BME280;2545;50.892;5.740;2023-07-20T07:10:09;56029.72;;;-142.21;79.99
5053;BME280;2545;50.892;5.740;2023-07-20T07:12:34;56029.72;;;-142.21;80.79
5053;BME280;2545;50.892;5.740;2023-07-20T07:15:02;56023.84;;;-142.21;78.66
5053;BME280;2545;50.892;5.740;2023-07-20T07:17:27;56045.41;;;-142.21;79.44
5053;BME280;2545;50.892;5.740;2023-07-20T07:19:53;56070.91;;;-142.21;77.63
5053;BME280;2545;50.892;5.740;2023-07-20T07:22:21;56025.81;;;-142.21;81.52
5053;BME280;2545;50.892;5.740;2023-07-20T07:24:47;55998.38;;;-142.21;81.49
5053;BME280;2545;50.892;5.740;2023-07-20T07:27:13;56051.31;;;-142.21;78.17
5053;BME280;2545;50.892;5.740;2023-07-20T07:29:41;56014.06;;;-142.21;77.80
5053;BME280;2545;50.892;5.740;2023-07-20T07:32:07;56019.94;;;-142.21;76.21
5053;BME280;2545;50.892;5.740;2023-07-20T07:34:32;55996.41;;;-142.21;75.82
5053;BME280;2545;50.892;5.740;2023-07-20T07:36:59;56025.81;;;-142.21;75.62
5053;BME280;2545;50.892;5.740;2023-07-20T07:39:25;56002.28;;;-142.21;74.72
5053;BME280;2545;50.892;5.740;2023-07-20T07:41:50;56017.97;;;-142.21;77.24
5053;BME280;2545;50.892;5.740;2023-07-20T07:44:17;56025.81;;;-142.21;74.50
5053;BME280;2545;50.892;5.740;2023-07-20T07:46:43;55994.44;;;-142.21;74.29
5053;BME280;2545;50.892;5.740;2023-07-20T07:49:08;56057.19;;;-142.21;71.69
5053;BME280;2545;50.892;5.740;2023-07-20T07:51:33;55990.53;;;-142.21;69.32
5053;BME280;2545;50.892;5.740;2023-07-20T07:53:59;55968.94;;;-142.21;69.08
5053;BME280;2545;50.892;5.740;2023-07-20T07:56:24;56002.28;;;-142.21;70.71
5053;BME280;2545;50.892;5.740;2023-07-20T07:58:50;55986.59;;;-142.21;68.74
5053;BME280;2545;50.892;5.740;2023-07-20T08:01:16;56002.28;;;-142.21;68.36
5053;BME280;2545;50.892;5.740;2023-07-20T08:03:44;56029.72;;;-142.21;67.96
5053;BME280;2545;50.892;5.740;2023-07-20T08:06:15;56027.78;;;-142.21;66.71
5053;BME280;2545;50.892;5.740;2023-07-20T08:08:41;55986.59;;;-142.21;65.42
5053;BME280;2545;50.892;5.740;2023-07-20T08:11:07;55998.38;;;-142.21;62.89
5053;BME280;2545;50.892;5.740;2023-07-20T08:13:33;55992.47;;;-142.21;63.67
5053;BME280;2545;50.892;5.740;2023-07-20T08:15:59;56006.22;;;-142.21;62.29
5053;BME280;2545;50.892;5.740;2023-07-20T08:18:24;55988.56;;;-142.21;63.91
5053;BME280;2545;50.892;5.740;2023-07-20T08:20:50;55976.78;;;-142.21;64.29
5053;BME280;2545;50.892;5.740;2023-07-20T08:23:15;56041.50;;;-142.21;63.66
5053;BME280;2545;50.892;5.740;2023-07-20T08:25:41;56006.22;;;-142.21;62.96
5053;BME280;2545;50.892;5.740;2023-07-20T08:28:13;55949.34;;;-142.21;60.63
5053;BME280;2545;50.892;5.740;2023-07-20T08:30:46;55965.03;;;-142.21;60.99
5053;BME280;2545;50.892;5.740;2023-07-20T08:33:17;55990.53;;;-142.21;61.64
5053;BME280;2545;50.892;5.740;2023-07-20T08:35:46;55947.38;;;-142.21;59.61
5053;BME280;2545;50.892;5.740;2023-07-20T08:38:12;56014.06;;;-142.21;59.20
5053;BME280;2545;50.892;5.740;2023-07-20T08:40:42;55939.53;;;-142.21;59.85
5053;BME280;2545;50.892;5.740;2023-07-20T08:43:10;55988.56;;;-142.21;62.30
5053;BME280;2545;50.892;5.740;2023-07-20T08:45:36;56017.97;;;-142.21;61.71
5053;BME280;2545;50.892;5.740;2023-07-20T08:48:05;55953.25;;;-142.21;60.91
5053;BME280;2545;50.892;5.740;2023-07-20T08:50:30;55988.56;;;-142.21;62.08
5053;BME280;2545;50.892;5.740;2023-07-20T08:52:57;55967.00;;;-142.21;61.02
5053;BME280;2545;50.892;5.740;2023-07-20T08:55:25;56008.16;;;-142.21;59.83
5053;BME280;2545;50.892;5.740;2023-07-20T08:57:53;55984.63;;;-142.21;59.84
5053;BME280;2545;50.892;5.740;2023-07-20T09:00:20;55990.53;;;-142.21;58.79
5053;BME280;2545;50.892;5.740;2023-07-20T09:02:46;56021.88;;;-142.21;58.51
5053;BME280;2545;50.892;5.740;2023-07-20T09:05:12;55974.84;;;-142.21;57.48
5053;BME280;2545;50.892;5.740;2023-07-20T09:07:40;55976.78;;;-142.21;56.63
5053;BME280;2545;50.892;5.740;2023-07-20T09:10:06;55974.84;;;-142.21;56.22
5053;BME280;2545;50.892;5.740;2023-07-20T09:12:35;55968.94;;;-142.21;52.43
5053;BME280;2545;50.892;5.740;2023-07-20T09:15:00;55988.56;;;-142.21;52.47
5053;BME280;2545;50.892;5.740;2023-07-20T09:17:26;55996.41;;;-142.21;54.48
5053;BME280;2545;50.892;5.740;2023-07-20T09:19:51;55941.50;;;-142.21;53.89
5053;BME280;2545;50.892;5.740;2023-07-20T09:22:17;56008.16;;;-142.21;55.00
5053;BME280;2545;50.892;5.740;2023-07-20T09:24:43;55988.56;;;-142.21;54.09
5053;BME280;2545;50.892;5.740;2023-07-20T09:27:09;55976.78;;;-142.21;52.78
5053;BME280;2545;50.892;5.740;2023-07-20T09:29:47;55990.53;;;-142.21;53.42
5053;BME280;2545;50.892;5.740;2023-07-20T09:32:13;55982.69;;;-142.21;53.70
5053;BME280;2545;50.892;5.740;2023-07-20T09:34:43;55967.00;;;-142.21;55.34
5053;BME280;2545;50.892;5.740;2023-07-20T09:37:08;55941.50;;;-142.21;54.84
5053;BME280;2545;50.892;5.740;2023-07-20T09:39:42;55959.16;;;-142.21;54.68
5053;BME280;2545;50.892;5.740;2023-07-20T09:42:09;55984.63;;;-142.21;52.39
5053;BME280;2545;50.892;5.740;2023-07-20T09:44:36;55955.22;;;-142.21;51.27
5053;BME280;2545;50.892;5.740;2023-07-20T09:47:03;55998.38;;;-142.21;50.25
5053;BME280;2545;50.892;5.740;2023-07-20T09:49:28;56004.25;;;-142.21;51.57
5053;BME280;2545;50.892;5.740;2023-07-20T09:51:55;55959.16;;;-142.21;51.02
5053;BME280;2545;50.892;5.740;2023-07-20T09:54:21;55968.94;;;-142.21;49.69
5053;BME280;2545;50.892;5.740;2023-07-20T09:56:48;55968.94;;;-142.21;49.69
5053;BME280;2545;50.892;5.740;2023-07-20T09:59:16;55970.91;;;-142.21;49.92
5053;BME280;2545;50.892;5.740;2023-07-20T10:01:42;55988.56;;;-142.21;49.91
5053;BME280;2545;50.892;5.740;2023-07-20T10:04:11;55965.03;;;-142.21;50.98
5053;BME280;2545;50.892;5.740;2023-07-20T10:06:41;55951.31;;;-142.21;50.79
5053;BME280;2545;50.892;5.740;2023-07-20T10:09:07;55947.38;;;-142.21;49.21
5053;BME280;2545;50.892;5.740;2023-07-20T10:11:36;55961.09;;;-142.21;49.29
5053;BME280;2545;50.892;5.740;2023-07-20T10:14:04;55953.25;;;-142.21;49.18
5053;BME280;2545;50.892;5.740;2023-07-20T10:16:38;55953.25;;;-142.21;49.76
5053;BME280;2545;50.892;5.740;2023-07-20T10:19:07;55947.38;;;-142.21;47.29
5053;BME280;2545;50.892;5.740;2023-07-20T10:21:40;55947.38;;;-142.21;46.96
5053;BME280;2545;50.892;5.740;2023-07-20T10:24:07;55961.09;;;-142.21;44.93
5053;BME280;2545;50.892;5.740;2023-07-20T10:26:34;55951.31;;;-142.21;46.36
5053;BME280;2545;50.892;5.740;2023-07-20T10:29:00;55974.84;;;-142.21;44.23
5053;BME280;2545;50.892;5.740;2023-07-20T10:31:26;55939.53;;;-142.21;42.72
5053;BME280;2545;50.892;5.740;2023-07-20T10:33:54;55919.94;;;-142.21;40.49
5053;BME280;2545;50.892;5.740;2023-07-20T10:36:25;55943.47;;;-142.21;40.39
5053;BME280;2545;50.892;5.740;2023-07-20T10:38:53;55876.78;;;-142.21;38.68
5053;BME280;2545;50.892;5.740;2023-07-20T10:41:29;55908.16;;;-142.21;38.18
5053;BME280;2545;50.892;5.740;2023-07-20T10:44:12;55929.75;;;-142.21;38.15
5053;BME280;2545;50.892;5.740;2023-07-20T10:49:05;55868.94;;;-142.21;37.06
5053;BME280;2545;50.892;5.740;2023-07-20T10:54:08;55912.09;;;-142.21;35.11
5053;BME280;2545;50.892;5.740;2023-07-20T10:56:33;55896.41;;;-142.21;35.32
5053;BME280;2545;50.892;5.740;2023-07-20T10:59:00;55884.63;;;-142.21;34.95
5053;BME280;2545;50.892;5.740;2023-07-20T11:01:29;55837.59;;;-142.21;33.08
5053;BME280;2545;50.892;5.740;2023-07-20T11:03:57;55884.63;;;-142.21;34.44
5053;BME280;2545;50.892;5.740;2023-07-20T11:08:48;55892.47;;;-142.21;34.05
5053;BME280;2545;50.892;5.740;2023-07-20T11:11:28;55896.41;;;-142.21;33.63
5053;BME280;2545;50.892;5.740;2023-07-20T11:18:58;55827.78;;;-142.21;32.62
5053;BME280;2545;50.892;5.740;2023-07-20T11:21:24;55888.56;;;-142.21;35.05
5053;BME280;2545;50.892;5.740;2023-07-20T11:23:51;55810.13;;;-142.21;32.58
5053;BME280;2545;50.892;5.740;2023-07-20T11:26:17;55817.97;;;-142.21;32.50
5053;BME280;2545;50.892;5.740;2023-07-20T11:28:48;55855.22;;;-142.21;31.77
5053;BME280;2545;50.892;5.740;2023-07-20T11:31:14;55847.38;;;-142.21;31.23
5053;BME280;2545;50.892;5.740;2023-07-20T11:33:41;55827.78;;;-142.21;31.87
5053;BME280;2545;50.892;5.740;2023-07-20T11:36:08;55821.91;;;-142.21;31.05
5053;BME280;2545;50.892;5.740;2023-07-20T11:38:34;55843.47;;;-142.21;31.52
5053;BME280;2545;50.892;5.740;2023-07-20T11:40:59;55861.09;;;-142.21;33.09
5053;BME280;2545;50.892;5.740;2023-07-20T11:43:24;55876.78;;;-142.21;33.17
5053;BME280;2545;50.892;5.740;2023-07-20T11:45:51;55859.16;;;-142.21;31.65
5053;BME280;2545;50.892;5.740;2023-07-20T11:48:16;55804.25;;;-142.21;30.08
5053;BME280;2545;50.892;5.740;2023-07-20T11:50:42;55863.06;;;-142.21;30.37
5053;BME280;2545;50.892;5.740;2023-07-20T11:53:08;55829.75;;;-142.21;31.27
5053;BME280;2545;50.892;5.740;2023-07-20T11:55:33;55798.38;;;-142.21;31.60
5053;BME280;2545;50.892;5.740;2023-07-20T11:58:06;55774.84;;;-142.21;29.53
5053;BME280;2545;50.892;5.740;2023-07-20T12:00:32;55829.75;;;-142.21;29.57
5053;BME280;2545;50.892;5.740;2023-07-20T12:02:59;55827.78;;;-142.21;30.16
5053;BME280;2545;50.892;5.740;2023-07-20T12:05:24;55843.47;;;-142.21;31.56
5053;BME280;2545;50.892;5.740;2023-07-20T12:07:51;55819.94;;;-142.21;31.25
5053;BME280;2545;50.892;5.740;2023-07-20T12:10:24;55821.91;;;-142.21;31.53
5053;BME280;2545;50.892;5.740;2023-07-20T12:12:50;55802.28;;;-142.21;30.59
5053;BME280;2545;50.892;5.740;2023-07-20T12:15:23;55806.22;;;-142.21;30.57
5053;BME280;2545;50.892;5.740;2023-07-20T12:17:51;55833.66;;;-142.21;30.29
5053;BME280;2545;50.892;5.740;2023-07-20T12:20:37;55761.13;;;-142.21;29.69
5053;BME280;2545;50.892;5.740;2023-07-20T12:23:10;55716.03;;;-142.21;28.77
5053;BME280;2545;50.892;5.740;2023-07-20T12:25:46;55747.38;;;-142.21;27.21
5053;BME280;2545;50.892;5.740;2023-07-20T12:28:17;55735.63;;;-142.21;27.61
5053;BME280;2545;50.892;5.740;2023-07-20T12:30:43;55788.56;;;-142.21;28.93
5053;BME280;2545;50.892;5.740;2023-07-20T12:33:09;55798.38;;;-142.21;29.87
5053;BME280;2545;50.892;5.740;2023-07-20T12:35:35;55831.69;;;-142.21;30.21
5053;BME280;2545;50.892;5.740;2023-07-20T12:38:00;55810.13;;;-142.21;30.47
5053;BME280;2545;50.892;5.740;2023-07-20T12:40:26;55868.94;;;-142.21;30.93
5053;BME280;2545;50.892;5.740;2023-07-20T12:42:51;55800.31;;;-142.21;30.38
5053;BME280;2545;50.892;5.740;2023-07-20T12:45:17;55804.25;;;-142.21;30.85
5053;BME280;2545;50.892;5.740;2023-07-20T12:47:42;55829.75;;;-142.21;30.37
5053;BME280;2545;50.892;5.740;2023-07-20T12:50:11;55802.28;;;-142.21;29.34
5053;BME280;2545;50.892;5.740;2023-07-20T12:52:39;55821.91;;;-142.21;28.85
5053;BME280;2545;50.892;5.740;2023-07-20T12:55:05;55806.22;;;-142.21;28.86
5053;BME280;2545;50.892;5.740;2023-07-20T12:57:31;55825.81;;;-142.21;28.99
5053;BME280;2545;50.892;5.740;2023-07-20T12:59:56;55808.16;;;-142.21;29.63
5053;BME280;2545;50.892;5.740;2023-07-20T13:02:22;55823.84;;;-142.21;29.96
5053;BME280;2545;50.892;5.740;2023-07-20T13:04:47;55833.66;;;-142.21;29.52
5053;BME280;2545;50.892;5.740;2023-07-20T13:07:12;55817.97;;;-142.21;29.09
5053;BME280;2545;50.892;5.740;2023-07-20T13:09:38;55841.50;;;-142.21;29.79
5053;BME280;2545;50.892;5.740;2023-07-20T13:12:03;55772.88;;;-142.21;28.30